Terminal Aerodrome Forecast
Issued by NWS

Home | Current Version | Previous Version | Graphics & Text | Print | Product List | Glossary On
Versions: 1 2 3 4 5 6 7 8 9 10 11 12 13 14 15 16 17 18
000
FTUS43 KOAX 171500 AAA
TAFCDR
TAF AMD
KCDR 171524Z 1715/1812 19013KT P6SM BKN015
     FM171700 19013KT P6SM BKN030
     FM171900 19013G24KT P6SM SCT040
     FM180200 17010KT P6SM SCT100
     FM180500 18016G28KT P6SM BKN100=

USA.gov is the U.S. government's official web portal to all federal, state and local government web resources and services.